Loxahatchee Groves, FL

10:27 PM EDT on August 22, 2014 (GMT -0400)
Fort Lauderdale Executive | Change Station
CLOSE
Current Station
Airport
Location: Fort Lauderdale,
Elevation: 13 ft
Nearby Weather Stations

Elev 13 ft 26.20 °N, 80.18 °W | Updated 34 minutes ago

Clear
Clear
85 °F
Feels Like 92 °F
N
9
Wind Variable Wind from ESE

Today
High -- | Low -- °F
--% Chance of Precip.
Yesterday
High -- | Low -- °F
Precip. -- in
6:56 AM 7:51 PM
Waning Crescent, 6% visible
Pressure 30.04 in
Visibility 10.0 miles
Clouds Clear
Heat Index 92 °F
Dew Point 74 °F
Humidity 69%
Rainfall 0.00 in
Snow Depth Not available.
UV 0 out of 12
Pollen 4.70 out of 12
Air Quality Not available.
Flu Activity Not available.
METAR KFXE 230153Z 11008KT 10SM CLR 29/23 A3003 RMK AO2 SLP171 T02940233

More Conditions Fewer Conditions

Pressure 30.04 in
Visibility 10.0 miles
Clouds Clear
Heat Index 92 °F
Dew Point 74 °F
Humidity 69%
Rainfall 0.00 in
Snow Depth Not available.
UV 0 out of 12
Pollen 4.70 out of 12
Air Quality Not available.
Flu Activity Not available.
METAR KFXE 230153Z 11008KT 10SM CLR 29/23 A3003 RMK AO2 SLP171 T02940233

More Conditions Fewer Conditions

10-Day Weather Forecast

Almanac

Astronomy

Aug. 22, 2014 Rise Set
Actual Time 6:56 AM EDT 7:51 PM EDT
Civil Twilight 6:32 AM EDT 8:15 PM EDT
Nautical Twilight 6:03 AM EDT 8:43 PM EDT
Astronomical Twilight 5:35 AM EDT 9:12 PM EDT
Moon 4:24 AM EDT (8/22) 5:53 PM EDT (8/22)
Length of Visible Light 13h 42m
Length of Day
12h 55m
Tomorrow will be 1m 27s shorter.
Waning Crescent, 6% of the Moon is Illuminated
Today
Waning Crescent
Aug 25
New
Sep 2
First Quarter
Sep 8
Full
Sep 15
Last Quarter

Today's Extremes

State Highs State Lows

Community

WunderPhotos

Upload Photos

1,746,345 photos uploaded!

WunderBlogs® & News

Nearby

Air Quality

  Air Quality AQ Index Pollutant
Yesterday Good
OZONE
Friday Good
OZONE
Friday Good
PM2.5
Saturday Good
OZONE
Saturday Good
PM2.5
Sunday Good
OZONE
Sunday Good
PM2.5
Monday Good
OZONE
Monday Good
PM2.5

Snow Depth

Station Depth Elevation
No new snow has been reported.

Earthquake Activity

City Distance Mag. Time & Date
No recent earthquake activity has been reported nearby.
Minimum magnitude displayed is 2.5.

Coastal Water Temperatures

Place Temperature
Lake Worth, FL 87.1 °F

Nearby Weather Stations